sensor_id;sensor_type;location;lat;lon;timestamp;P1;durP1;ratioP1;P2;durP2;ratioP2
15889;SDS011;8043;49.388;12.128;2022-08-25T00:02:04;11.30;;;5.67;;
15889;SDS011;8043;49.388;12.128;2022-08-25T00:07:08;11.67;;;5.83;;
15889;SDS011;8043;49.388;12.128;2022-08-25T00:12:11;12.50;;;5.57;;
15889;SDS011;8043;49.388;12.128;2022-08-25T00:17:14;11.43;;;6.40;;
15889;SDS011;8043;49.388;12.128;2022-08-25T00:22:16;10.53;;;6.27;;
15889;SDS011;8043;49.388;12.128;2022-08-25T00:27:18;13.47;;;6.27;;
15889;SDS011;8043;49.388;12.128;2022-08-25T00:32:21;13.43;;;6.20;;
15889;SDS011;8043;49.388;12.128;2022-08-25T00:37:25;11.33;;;6.33;;
15889;SDS011;8043;49.388;12.128;2022-08-25T00:42:27;10.83;;;5.33;;
15889;SDS011;8043;49.388;12.128;2022-08-25T00:47:29;14.20;;;6.60;;
15889;SDS011;8043;49.388;12.128;2022-08-25T00:52:33;12.03;;;6.50;;
15889;SDS011;8043;49.388;12.128;2022-08-25T00:57:40;11.27;;;6.63;;
15889;SDS011;8043;49.388;12.128;2022-08-25T01:02:44;13.20;;;6.37;;
15889;SDS011;8043;49.388;12.128;2022-08-25T01:07:47;10.53;;;6.20;;
15889;SDS011;8043;49.388;12.128;2022-08-25T01:12:50;11.70;;;6.60;;
15889;SDS011;8043;49.388;12.128;2022-08-25T01:17:54;12.33;;;6.57;;
15889;SDS011;8043;49.388;12.128;2022-08-25T01:22:58;14.33;;;7.23;;
15889;SDS011;8043;49.388;12.128;2022-08-25T01:28:01;12.93;;;6.67;;
15889;SDS011;8043;49.388;12.128;2022-08-25T01:33:04;12.20;;;6.37;;
15889;SDS011;8043;49.388;12.128;2022-08-25T01:38:08;12.93;;;7.30;;
15889;SDS011;8043;49.388;12.128;2022-08-25T01:48:19;13.90;;;7.13;;
15889;SDS011;8043;49.388;12.128;2022-08-25T01:53:22;11.50;;;6.13;;
15889;SDS011;8043;49.388;12.128;2022-08-25T01:58:33;13.20;;;7.07;;
15889;SDS011;8043;49.388;12.128;2022-08-25T02:03:37;10.83;;;6.30;;
15889;SDS011;8043;49.388;12.128;2022-08-25T02:08:40;13.20;;;6.27;;
15889;SDS011;8043;49.388;12.128;2022-08-25T02:13:43;12.77;;;6.17;;
15889;SDS011;8043;49.388;12.128;2022-08-25T02:18:45;11.40;;;6.80;;
15889;SDS011;8043;49.388;12.128;2022-08-25T02:23:48;13.97;;;6.70;;
15889;SDS011;8043;49.388;12.128;2022-08-25T02:28:50;14.40;;;6.77;;
15889;SDS011;8043;49.388;12.128;2022-08-25T02:33:54;14.90;;;7.10;;
15889;SDS011;8043;49.388;12.128;2022-08-25T02:38:57;12.33;;;6.10;;
15889;SDS011;8043;49.388;12.128;2022-08-25T02:44:00;13.83;;;6.97;;
15889;SDS011;8043;49.388;12.128;2022-08-25T02:49:04;12.53;;;6.80;;
15889;SDS011;8043;49.388;12.128;2022-08-25T02:54:07;15.47;;;7.40;;
15889;SDS011;8043;49.388;12.128;2022-08-25T02:59:09;11.63;;;6.27;;
15889;SDS011;8043;49.388;12.128;2022-08-25T03:04:12;15.10;;;7.83;;
15889;SDS011;8043;49.388;12.128;2022-08-25T03:09:14;11.47;;;6.87;;
15889;SDS011;8043;49.388;12.128;2022-08-25T03:14:17;13.40;;;7.77;;
15889;SDS011;8043;49.388;12.128;2022-08-25T03:19:19;15.43;;;7.47;;
15889;SDS011;8043;49.388;12.128;2022-08-25T03:24:22;14.43;;;8.00;;
15889;SDS011;8043;49.388;12.128;2022-08-25T03:29:27;14.53;;;7.63;;
15889;SDS011;8043;49.388;12.128;2022-08-25T03:34:30;12.63;;;7.47;;
15889;SDS011;8043;49.388;12.128;2022-08-25T03:39:32;12.70;;;7.13;;
15889;SDS011;8043;49.388;12.128;2022-08-25T03:44:35;14.40;;;6.80;;
15889;SDS011;8043;49.388;12.128;2022-08-25T03:49:37;15.70;;;7.73;;
15889;SDS011;8043;49.388;12.128;2022-08-25T03:54:39;14.17;;;7.23;;
15889;SDS011;8043;49.388;12.128;2022-08-25T03:59:41;14.10;;;7.37;;
15889;SDS011;8043;49.388;12.128;2022-08-25T04:04:43;13.43;;;7.53;;
15889;SDS011;8043;49.388;12.128;2022-08-25T04:09:46;14.67;;;7.33;;
15889;SDS011;8043;49.388;12.128;2022-08-25T04:14:48;13.90;;;7.37;;
15889;SDS011;8043;49.388;12.128;2022-08-25T04:19:50;18.27;;;7.33;;
15889;SDS011;8043;49.388;12.128;2022-08-25T04:24:52;14.53;;;7.43;;
15889;SDS011;8043;49.388;12.128;2022-08-25T04:29:55;14.77;;;7.37;;
15889;SDS011;8043;49.388;12.128;2022-08-25T04:34:57;13.93;;;7.63;;
15889;SDS011;8043;49.388;12.128;2022-08-25T04:39:59;14.80;;;7.30;;
15889;SDS011;8043;49.388;12.128;2022-08-25T04:45:02;13.87;;;7.27;;
15889;SDS011;8043;49.388;12.128;2022-08-25T04:50:06;15.10;;;7.67;;
15889;SDS011;8043;49.388;12.128;2022-08-25T04:55:08;14.60;;;7.80;;
15889;SDS011;8043;49.388;12.128;2022-08-25T05:00:11;17.23;;;7.00;;
15889;SDS011;8043;49.388;12.128;2022-08-25T05:05:14;15.17;;;7.57;;
15889;SDS011;8043;49.388;12.128;2022-08-25T05:10:16;16.80;;;7.73;;
15889;SDS011;8043;49.388;12.128;2022-08-25T05:15:19;12.30;;;7.13;;
15889;SDS011;8043;49.388;12.128;2022-08-25T05:20:39;13.93;;;7.60;;
15889;SDS011;8043;49.388;12.128;2022-08-25T05:25:41;20.80;;;7.30;;
15889;SDS011;8043;49.388;12.128;2022-08-25T05:30:44;15.57;;;7.20;;
15889;SDS011;8043;49.388;12.128;2022-08-25T05:35:48;18.97;;;7.63;;
15889;SDS011;8043;49.388;12.128;2022-08-25T05:40:57;17.77;;;7.80;;
15889;SDS011;8043;49.388;12.128;2022-08-25T05:46:02;13.87;;;6.90;;
15889;SDS011;8043;49.388;12.128;2022-08-25T05:51:05;19.20;;;8.97;;
15889;SDS011;8043;49.388;12.128;2022-08-25T05:56:09;15.70;;;8.33;;
15889;SDS011;8043;49.388;12.128;2022-08-25T06:01:23;14.80;;;7.63;;
15889;SDS011;8043;49.388;12.128;2022-08-25T06:06:46;21.93;;;8.13;;
15889;SDS011;8043;49.388;12.128;2022-08-25T06:11:49;15.80;;;8.70;;
15889;SDS011;8043;49.388;12.128;2022-08-25T06:16:52;16.03;;;8.23;;
15889;SDS011;8043;49.388;12.128;2022-08-25T06:21:55;14.23;;;7.47;;
15889;SDS011;8043;49.388;12.128;2022-08-25T06:26:58;13.67;;;8.00;;
15889;SDS011;8043;49.388;12.128;2022-08-25T06:32:00;17.87;;;8.40;;
15889;SDS011;8043;49.388;12.128;2022-08-25T06:37:02;20.10;;;8.77;;
15889;SDS011;8043;49.388;12.128;2022-08-25T06:42:04;18.07;;;9.03;;
15889;SDS011;8043;49.388;12.128;2022-08-25T06:47:07;16.40;;;8.30;;
15889;SDS011;8043;49.388;12.128;2022-08-25T06:52:10;20.47;;;9.40;;
15889;SDS011;8043;49.388;12.128;2022-08-25T06:57:12;16.00;;;8.83;;
15889;SDS011;8043;49.388;12.128;2022-08-25T07:02:15;19.60;;;8.90;;
15889;SDS011;8043;49.388;12.128;2022-08-25T07:07:17;18.17;;;9.40;;
15889;SDS011;8043;49.388;12.128;2022-08-25T07:12:19;15.93;;;8.87;;
15889;SDS011;8043;49.388;12.128;2022-08-25T07:17:23;16.37;;;9.00;;
15889;SDS011;8043;49.388;12.128;2022-08-25T07:22:26;19.37;;;9.57;;
15889;SDS011;8043;49.388;12.128;2022-08-25T07:27:28;19.10;;;10.00;;
15889;SDS011;8043;49.388;12.128;2022-08-25T07:32:31;19.50;;;9.87;;
15889;SDS011;8043;49.388;12.128;2022-08-25T07:37:33;17.80;;;10.13;;
15889;SDS011;8043;49.388;12.128;2022-08-25T07:42:39;28.93;;;10.20;;
15889;SDS011;8043;49.388;12.128;2022-08-25T07:47:41;18.07;;;10.40;;
15889;SDS011;8043;49.388;12.128;2022-08-25T07:52:44;18.50;;;9.60;;
15889;SDS011;8043;49.388;12.128;2022-08-25T07:57:47;14.50;;;8.43;;
15889;SDS011;8043;49.388;12.128;2022-08-25T08:02:50;16.63;;;9.23;;
15889;SDS011;8043;49.388;12.128;2022-08-25T08:07:52;14.23;;;7.33;;
15889;SDS011;8043;49.388;12.128;2022-08-25T08:12:55;12.90;;;7.78;;
15889;SDS011;8043;49.388;12.128;2022-08-25T08:17:58;12.47;;;7.13;;
15889;SDS011;8043;49.388;12.128;2022-08-25T08:23:00;12.50;;;6.70;;
15889;SDS011;8043;49.388;12.128;2022-08-25T08:28:02;18.02;;;7.87;;
15889;SDS011;8043;49.388;12.128;2022-08-25T08:33:05;12.60;;;7.40;;
15889;SDS011;8043;49.388;12.128;2022-08-25T08:38:07;16.47;;;8.00;;
15889;SDS011;8043;49.388;12.128;2022-08-25T08:43:11;14.87;;;7.20;;
15889;SDS011;8043;49.388;12.128;2022-08-25T08:53:23;12.25;;;6.75;;
15889;SDS011;8043;49.388;12.128;2022-08-25T08:58:40;14.30;;;8.25;;
15889;SDS011;8043;49.388;12.128;2022-08-25T09:03:48;10.90;;;6.22;;
15889;SDS011;8043;49.388;12.128;2022-08-25T09:09:00;13.20;;;6.50;;
15889;SDS011;8043;49.388;12.128;2022-08-25T09:19:39;8.73;;;5.40;;
15889;SDS011;8043;49.388;12.128;2022-08-25T09:30:12;12.78;;;6.08;;
15889;SDS011;8043;49.388;12.128;2022-08-25T09:35:19;9.50;;;6.10;;
15889;SDS011;8043;49.388;12.128;2022-08-25T09:40:28;11.53;;;5.92;;
15889;SDS011;8043;49.388;12.128;2022-08-25T09:50:40;10.38;;;5.70;;
15889;SDS011;8043;49.388;12.128;2022-08-25T09:55:43;15.45;;;6.00;;
15889;SDS011;8043;49.388;12.128;2022-08-25T10:00:59;11.15;;;6.65;;
15889;SDS011;8043;49.388;12.128;2022-08-25T10:06:11;13.65;;;6.28;;
15889;SDS011;8043;49.388;12.128;2022-08-25T10:11:13;10.13;;;5.50;;
15889;SDS011;8043;49.388;12.128;2022-08-25T10:16:37;9.53;;;5.42;;
15889;SDS011;8043;49.388;12.128;2022-08-25T10:21:40;11.65;;;5.80;;
15889;SDS011;8043;49.388;12.128;2022-08-25T10:26:47;10.35;;;5.50;;
15889;SDS011;8043;49.388;12.128;2022-08-25T10:47:56;11.88;;;5.17;;
15889;SDS011;8043;49.388;12.128;2022-08-25T10:58:14;8.68;;;4.95;;
15889;SDS011;8043;49.388;12.128;2022-08-25T11:03:35;9.15;;;5.05;;
15889;SDS011;8043;49.388;12.128;2022-08-25T11:08:42;7.42;;;4.70;;
15889;SDS011;8043;49.388;12.128;2022-08-25T11:19:08;8.55;;;5.00;;
15889;SDS011;8043;49.388;12.128;2022-08-25T11:24:21;8.53;;;4.72;;
15889;SDS011;8043;49.388;12.128;2022-08-25T11:29:20;10.90;;;4.67;;
15889;SDS011;8043;49.388;12.128;2022-08-25T11:34:23;8.70;;;4.62;;
15889;SDS011;8043;49.388;12.128;2022-08-25T11:50:25;9.13;;;4.78;;
15889;SDS011;8043;49.388;12.128;2022-08-25T11:55:48;18.77;;;5.87;;
15889;SDS011;8043;49.388;12.128;2022-08-25T12:00:54;7.37;;;4.58;;
15889;SDS011;8043;49.388;12.128;2022-08-25T12:06:40;11.38;;;5.17;;
15889;SDS011;8043;49.388;12.128;2022-08-25T12:11:55;8.60;;;4.67;;
15889;SDS011;8043;49.388;12.128;2022-08-25T12:21:58;8.93;;;5.05;;
15889;SDS011;8043;49.388;12.128;2022-08-25T12:27:05;18.75;;;5.50;;
15889;SDS011;8043;49.388;12.128;2022-08-25T12:32:31;14.00;;;5.80;;
15889;SDS011;8043;49.388;12.128;2022-08-25T12:37:56;23.10;;;5.92;;
15889;SDS011;8043;49.388;12.128;2022-08-25T12:43:05;10.65;;;5.37;;
15889;SDS011;8043;49.388;12.128;2022-08-25T12:53:36;14.68;;;5.15;;
15889;SDS011;8043;49.388;12.128;2022-08-25T12:58:55;6.85;;;4.35;;
15889;SDS011;8043;49.388;12.128;2022-08-25T13:09:59;11.03;;;4.60;;
15889;SDS011;8043;49.388;12.128;2022-08-25T13:14:58;7.70;;;4.20;;
15889;SDS011;8043;49.388;12.128;2022-08-25T13:20:17;9.23;;;5.20;;
15889;SDS011;8043;49.388;12.128;2022-08-25T13:25:22;11.65;;;5.00;;
15889;SDS011;8043;49.388;12.128;2022-08-25T13:30:32;8.78;;;4.80;;
15889;SDS011;8043;49.388;12.128;2022-08-25T13:35:36;11.03;;;4.35;;
15889;SDS011;8043;49.388;12.128;2022-08-25T13:40:38;14.68;;;4.92;;
15889;SDS011;8043;49.388;12.128;2022-08-25T13:45:42;11.45;;;4.75;;
15889;SDS011;8043;49.388;12.128;2022-08-25T13:50:45;9.03;;;4.50;;
15889;SDS011;8043;49.388;12.128;2022-08-25T13:55:49;10.63;;;4.78;;
15889;SDS011;8043;49.388;12.128;2022-08-25T14:01:05;11.50;;;4.67;;
15889;SDS011;8043;49.388;12.128;2022-08-25T14:06:18;12.23;;;4.72;;
15889;SDS011;8043;49.388;12.128;2022-08-25T14:22:00;10.20;;;4.60;;
15889;SDS011;8043;49.388;12.128;2022-08-25T14:27:03;9.60;;;4.80;;
15889;SDS011;8043;49.388;12.128;2022-08-25T14:32:05;12.75;;;5.22;;
15889;SDS011;8043;49.388;12.128;2022-08-25T14:37:15;11.78;;;5.17;;
15889;SDS011;8043;49.388;12.128;2022-08-25T14:42:18;10.48;;;5.47;;
15889;SDS011;8043;49.388;12.128;2022-08-25T14:47:22;10.25;;;5.35;;
15889;SDS011;8043;49.388;12.128;2022-08-25T14:52:25;13.22;;;4.87;;
15889;SDS011;8043;49.388;12.128;2022-08-25T14:57:29;9.20;;;4.75;;
15889;SDS011;8043;49.388;12.128;2022-08-25T15:02:32;8.68;;;4.85;;
15889;SDS011;8043;49.388;12.128;2022-08-25T15:07:36;15.55;;;5.30;;
15889;SDS011;8043;49.388;12.128;2022-08-25T15:12:40;18.05;;;4.75;;
15889;SDS011;8043;49.388;12.128;2022-08-25T15:17:42;11.38;;;4.45;;
15889;SDS011;8043;49.388;12.128;2022-08-25T15:22:46;11.68;;;4.92;;
15889;SDS011;8043;49.388;12.128;2022-08-25T15:27:49;10.13;;;4.62;;
15889;SDS011;8043;49.388;12.128;2022-08-25T15:32:51;17.23;;;4.90;;
15889;SDS011;8043;49.388;12.128;2022-08-25T15:37:53;11.97;;;4.73;;
15889;SDS011;8043;49.388;12.128;2022-08-25T15:42:55;14.05;;;5.55;;
15889;SDS011;8043;49.388;12.128;2022-08-25T15:47:57;16.52;;;5.60;;
15889;SDS011;8043;49.388;12.128;2022-08-25T15:53:00;10.80;;;5.30;;
15889;SDS011;8043;49.388;12.128;2022-08-25T15:58:02;14.53;;;4.65;;
15889;SDS011;8043;49.388;12.128;2022-08-25T16:03:04;12.85;;;4.95;;
15889;SDS011;8043;49.388;12.128;2022-08-25T16:08:07;10.95;;;5.05;;
15889;SDS011;8043;49.388;12.128;2022-08-25T16:13:10;16.85;;;4.95;;
15889;SDS011;8043;49.388;12.128;2022-08-25T16:18:12;14.93;;;4.85;;
15889;SDS011;8043;49.388;12.128;2022-08-25T16:23:15;9.80;;;4.80;;
15889;SDS011;8043;49.388;12.128;2022-08-25T16:28:18;11.78;;;5.42;;
15889;SDS011;8043;49.388;12.128;2022-08-25T16:33:21;17.50;;;4.95;;
15889;SDS011;8043;49.388;12.128;2022-08-25T16:38:23;8.43;;;4.53;;
15889;SDS011;8043;49.388;12.128;2022-08-25T16:43:25;15.05;;;5.10;;
15889;SDS011;8043;49.388;12.128;2022-08-25T16:48:28;13.25;;;5.25;;
15889;SDS011;8043;49.388;12.128;2022-08-25T16:53:30;18.00;;;4.90;;
15889;SDS011;8043;49.388;12.128;2022-08-25T16:58:54;18.45;;;5.33;;
15889;SDS011;8043;49.388;12.128;2022-08-25T17:03:57;11.22;;;5.10;;
15889;SDS011;8043;49.388;12.128;2022-08-25T17:08:59;10.80;;;4.55;;
15889;SDS011;8043;49.388;12.128;2022-08-25T17:14:02;14.38;;;5.28;;
15889;SDS011;8043;49.388;12.128;2022-08-25T17:19:06;17.17;;;5.05;;
15889;SDS011;8043;49.388;12.128;2022-08-25T17:24:11;12.60;;;4.60;;
15889;SDS011;8043;49.388;12.128;2022-08-25T17:29:14;15.40;;;5.00;;
15889;SDS011;8043;49.388;12.128;2022-08-25T17:34:17;11.97;;;5.03;;
15889;SDS011;8043;49.388;12.128;2022-08-25T17:39:20;17.50;;;5.35;;
15889;SDS011;8043;49.388;12.128;2022-08-25T17:44:23;14.53;;;4.78;;
15889;SDS011;8043;49.388;12.128;2022-08-25T17:49:25;13.57;;;4.77;;
15889;SDS011;8043;49.388;12.128;2022-08-25T17:54:27;11.97;;;5.05;;
15889;SDS011;8043;49.388;12.128;2022-08-25T17:59:29;9.73;;;4.25;;
15889;SDS011;8043;49.388;12.128;2022-08-25T18:04:31;9.13;;;4.58;;
15889;SDS011;8043;49.388;12.128;2022-08-25T18:09:34;14.70;;;4.65;;
15889;SDS011;8043;49.388;12.128;2022-08-25T18:14:36;12.95;;;5.10;;
15889;SDS011;8043;49.388;12.128;2022-08-25T18:19:38;12.33;;;5.10;;
15889;SDS011;8043;49.388;12.128;2022-08-25T18:24:41;10.80;;;5.05;;
15889;SDS011;8043;49.388;12.128;2022-08-25T18:29:43;13.60;;;5.28;;
15889;SDS011;8043;49.388;12.128;2022-08-25T18:34:46;16.93;;;5.37;;
15889;SDS011;8043;49.388;12.128;2022-08-25T18:39:48;15.20;;;5.53;;
15889;SDS011;8043;49.388;12.128;2022-08-25T18:45:08;10.28;;;4.92;;
15889;SDS011;8043;49.388;12.128;2022-08-25T18:50:11;9.25;;;4.25;;
15889;SDS011;8043;49.388;12.128;2022-08-25T18:55:13;17.27;;;5.60;;
15889;SDS011;8043;49.388;12.128;2022-08-25T19:00:16;11.80;;;4.92;;
15889;SDS011;8043;49.388;12.128;2022-08-25T19:05:21;11.53;;;5.15;;
15889;SDS011;8043;49.388;12.128;2022-08-25T19:10:25;9.83;;;4.90;;
15889;SDS011;8043;49.388;12.128;2022-08-25T19:15:27;14.43;;;5.83;;
15889;SDS011;8043;49.388;12.128;2022-08-25T19:20:30;11.33;;;5.50;;
15889;SDS011;8043;49.388;12.128;2022-08-25T19:25:33;14.30;;;5.55;;
15889;SDS011;8043;49.388;12.128;2022-08-25T19:30:37;12.88;;;6.08;;
15889;SDS011;8043;49.388;12.128;2022-08-25T19:35:44;58.75;;;8.55;;
15889;SDS011;8043;49.388;12.128;2022-08-25T19:40:48;15.18;;;5.70;;
15889;SDS011;8043;49.388;12.128;2022-08-25T19:45:51;12.50;;;5.45;;
15889;SDS011;8043;49.388;12.128;2022-08-25T19:50:53;12.80;;;5.72;;
15889;SDS011;8043;49.388;12.128;2022-08-25T19:55:56;13.43;;;6.58;;
15889;SDS011;8043;49.388;12.128;2022-08-25T20:00:59;11.20;;;6.20;;
15889;SDS011;8043;49.388;12.128;2022-08-25T20:06:02;15.23;;;5.87;;
15889;SDS011;8043;49.388;12.128;2022-08-25T20:11:04;14.45;;;5.65;;
15889;SDS011;8043;49.388;12.128;2022-08-25T20:16:06;12.55;;;5.72;;
15889;SDS011;8043;49.388;12.128;2022-08-25T20:21:09;17.07;;;6.47;;
15889;SDS011;8043;49.388;12.128;2022-08-25T20:26:11;12.30;;;5.33;;
15889;SDS011;8043;49.388;12.128;2022-08-25T20:31:13;13.35;;;6.20;;
15889;SDS011;8043;49.388;12.128;2022-08-25T20:36:16;16.07;;;5.60;;
15889;SDS011;8043;49.388;12.128;2022-08-25T20:41:18;11.85;;;6.08;;
15889;SDS011;8043;49.388;12.128;2022-08-25T20:46:20;14.83;;;5.70;;
15889;SDS011;8043;49.388;12.128;2022-08-25T20:51:23;19.17;;;6.80;;
15889;SDS011;8043;49.388;12.128;2022-08-25T20:56:25;17.95;;;6.00;;
15889;SDS011;8043;49.388;12.128;2022-08-25T21:01:29;16.87;;;6.03;;
15889;SDS011;8043;49.388;12.128;2022-08-25T21:06:37;16.03;;;5.50;;
15889;SDS011;8043;49.388;12.128;2022-08-25T21:11:39;16.40;;;5.60;;
15889;SDS011;8043;49.388;12.128;2022-08-25T21:16:42;13.57;;;5.67;;
15889;SDS011;8043;49.388;12.128;2022-08-25T21:21:46;13.50;;;5.77;;
15889;SDS011;8043;49.388;12.128;2022-08-25T21:26:50;17.60;;;6.17;;
15889;SDS011;8043;49.388;12.128;2022-08-25T21:31:54;13.23;;;6.50;;
15889;SDS011;8043;49.388;12.128;2022-08-25T21:36:58;15.33;;;5.77;;
15889;SDS011;8043;49.388;12.128;2022-08-25T21:42:00;19.07;;;6.13;;
15889;SDS011;8043;49.388;12.128;2022-08-25T21:47:03;19.67;;;6.13;;
15889;SDS011;8043;49.388;12.128;2022-08-25T21:52:05;13.67;;;6.17;;
15889;SDS011;8043;49.388;12.128;2022-08-25T21:57:07;13.90;;;5.60;;
15889;SDS011;8043;49.388;12.128;2022-08-25T22:02:10;11.53;;;6.17;;
15889;SDS011;8043;49.388;12.128;2022-08-25T22:07:13;14.70;;;6.40;;
15889;SDS011;8043;49.388;12.128;2022-08-25T22:12:15;23.30;;;6.27;;
15889;SDS011;8043;49.388;12.128;2022-08-25T22:17:17;12.63;;;5.73;;
15889;SDS011;8043;49.388;12.128;2022-08-25T22:22:20;17.97;;;6.70;;
15889;SDS011;8043;49.388;12.128;2022-08-25T22:27:23;15.97;;;6.07;;
15889;SDS011;8043;49.388;12.128;2022-08-25T22:32:25;15.47;;;6.43;;
15889;SDS011;8043;49.388;12.128;2022-08-25T22:37:27;17.40;;;7.20;;
15889;SDS011;8043;49.388;12.128;2022-08-25T22:42:29;13.77;;;6.60;;
15889;SDS011;8043;49.388;12.128;2022-08-25T22:47:32;11.50;;;6.40;;
15889;SDS011;8043;49.388;12.128;2022-08-25T22:52:34;17.57;;;7.00;;
15889;SDS011;8043;49.388;12.128;2022-08-25T22:57:37;23.37;;;7.00;;
15889;SDS011;8043;49.388;12.128;2022-08-25T23:02:41;11.00;;;5.80;;
15889;SDS011;8043;49.388;12.128;2022-08-25T23:07:43;12.63;;;6.37;;
15889;SDS011;8043;49.388;12.128;2022-08-25T23:12:46;17.20;;;6.83;;
15889;SDS011;8043;49.388;12.128;2022-08-25T23:17:48;16.63;;;7.67;;
15889;SDS011;8043;49.388;12.128;2022-08-25T23:22:50;17.20;;;6.57;;
15889;SDS011;8043;49.388;12.128;2022-08-25T23:27:55;15.83;;;7.30;;
15889;SDS011;8043;49.388;12.128;2022-08-25T23:32:58;16.23;;;7.47;;
15889;SDS011;8043;49.388;12.128;2022-08-25T23:38:00;14.97;;;6.87;;
15889;SDS011;8043;49.388;12.128;2022-08-25T23:43:03;19.83;;;6.97;;
15889;SDS011;8043;49.388;12.128;2022-08-25T23:53:27;14.50;;;7.53;;
15889;SDS011;8043;49.388;12.128;2022-08-25T23:58:30;18.20;;;7.47;;
